createdAt,value
2018-11-12T00:00:06.041Z,1.40
2018-11-12T00:05:04.617Z,1.77
2018-11-12T00:10:03.746Z,1.47
2018-11-12T00:15:02.220Z,1.33
2018-11-12T00:20:00.575Z,1.57
2018-11-12T00:24:59.087Z,1.33
2018-11-12T00:29:57.490Z,1.57
2018-11-12T00:34:55.901Z,1.60
2018-11-12T00:39:54.342Z,1.50
2018-11-12T00:44:52.817Z,1.87
2018-11-12T00:49:51.185Z,1.40
2018-11-12T00:54:49.594Z,1.60
2018-11-12T00:59:47.963Z,2.07
2018-11-12T01:04:46.591Z,1.90
2018-11-12T01:09:44.977Z,1.30
2018-11-12T01:14:43.460Z,1.50
2018-11-12T01:19:41.794Z,1.57
2018-11-12T01:24:40.301Z,1.60
2018-11-12T01:29:38.645Z,1.53
2018-11-12T01:34:37.076Z,1.40
2018-11-12T01:39:35.446Z,1.77
2018-11-12T01:44:33.886Z,1.90
2018-11-12T01:49:32.370Z,1.33
2018-11-12T01:54:30.764Z,1.43
2018-11-12T01:59:29.117Z,2.10
2018-11-12T02:04:27.553Z,1.57
2018-11-12T02:09:25.912Z,1.83
2018-11-12T02:14:24.393Z,1.50
2018-11-12T02:19:22.720Z,1.90
2018-11-12T02:24:21.281Z,1.80
2018-11-12T02:29:19.657Z,1.47
2018-11-12T02:34:18.028Z,1.50
2018-11-12T02:39:16.377Z,1.80
2018-11-12T02:44:14.837Z,1.90
2018-11-12T02:49:13.196Z,1.80
2018-11-12T02:54:11.629Z,2.40
2018-11-12T02:59:09.985Z,1.63
2018-11-12T03:04:08.421Z,1.60
2018-11-12T03:09:08.984Z,1.70
2018-11-12T03:14:07.595Z,1.70
2018-11-12T03:19:06.092Z,1.90
2018-11-12T03:24:04.798Z,1.60
2018-11-12T03:29:03.584Z,1.87
2018-11-12T03:34:01.981Z,1.80
2018-11-12T03:39:00.363Z,1.73
2018-11-12T03:43:58.785Z,1.90
2018-11-12T03:48:57.167Z,1.53
2018-11-12T03:53:55.573Z,1.90
2018-11-12T03:58:53.975Z,2.00
2018-11-12T04:03:52.360Z,1.60
2018-11-12T04:08:50.731Z,1.70
2018-11-12T04:13:49.157Z,2.10
2018-11-12T04:18:47.632Z,1.60
2018-11-12T04:23:46.050Z,1.60
2018-11-12T04:28:44.490Z,2.00
2018-11-12T04:33:42.928Z,1.90
2018-11-12T04:38:41.313Z,1.90
2018-11-12T04:43:39.733Z,1.97
2018-11-12T04:48:38.089Z,1.73
2018-11-12T04:53:36.604Z,2.13
2018-11-12T04:58:34.953Z,2.07
2018-11-12T05:03:33.412Z,1.80
2018-11-12T05:08:31.850Z,1.90
2018-11-12T05:13:30.334Z,1.80
2018-11-12T05:18:28.699Z,1.97
2018-11-12T05:23:27.124Z,1.60
2018-11-12T05:28:25.651Z,1.93
2018-11-12T05:33:23.995Z,1.70
2018-11-12T05:38:22.447Z,2.00
2018-11-12T05:43:20.800Z,1.83
2018-11-12T05:48:19.224Z,1.93
2018-11-12T05:53:17.593Z,1.77
2018-11-12T05:58:16.008Z,1.80
2018-11-12T06:03:14.398Z,1.83
2018-11-12T06:08:12.741Z,1.60
2018-11-12T06:13:11.184Z,1.77
2018-11-12T06:18:09.588Z,1.73
2018-11-12T06:23:08.085Z,1.80
2018-11-12T06:28:06.461Z,1.93
2018-11-12T06:33:05.065Z,1.83
2018-11-12T06:38:03.970Z,1.80
2018-11-12T06:43:02.494Z,1.83
2018-11-12T06:48:01.240Z,2.07
2018-11-12T06:53:00.232Z,1.73
2018-11-12T06:57:58.595Z,1.73
2018-11-12T07:02:57.089Z,1.73
2018-11-12T07:07:55.435Z,1.90
2018-11-12T07:12:54.653Z,2.00
2018-11-12T07:18:07.906Z,1.80
2018-11-12T07:23:19.036Z,1.50
2018-11-12T07:28:17.502Z,1.30
2018-11-12T07:33:16.056Z,1.60
2018-11-12T07:38:14.410Z,1.57
2018-11-12T07:43:12.867Z,1.53
2018-11-12T07:48:11.213Z,1.60
2018-11-12T07:53:09.629Z,1.57
2018-11-12T07:58:08.022Z,1.70
2018-11-12T08:03:07.723Z,1.60
2018-11-12T08:08:06.301Z,1.47
2018-11-12T08:13:05.113Z,1.60
2018-11-12T08:18:03.552Z,1.57
2018-11-12T08:23:02.062Z,1.73
2018-11-12T08:28:00.487Z,1.30
2018-11-12T08:32:59.980Z,1.77
2018-11-12T08:37:58.509Z,1.37
2018-11-12T08:42:56.975Z,1.57
2018-11-12T08:47:56.140Z,1.50
2018-11-12T08:52:55.343Z,1.63
2018-11-12T08:57:55.189Z,1.30
2018-11-12T09:02:53.700Z,1.30
2018-11-12T09:07:56.569Z,1.57
2018-11-12T09:12:54.958Z,1.40
2018-11-12T09:17:53.338Z,1.53
2018-11-12T09:22:51.934Z,1.10
2018-11-12T09:27:50.331Z,1.57
2018-11-12T09:32:48.864Z,1.30
2018-11-12T09:37:48.284Z,1.40
2018-11-12T09:42:46.882Z,1.40
2018-11-12T09:47:45.811Z,1.30
2018-11-12T09:52:45.595Z,1.47
2018-11-12T09:57:45.999Z,1.73
2018-11-12T10:02:47.171Z,1.57
2018-11-12T10:07:47.568Z,1.50
2018-11-12T10:12:46.862Z,1.60
2018-11-12T10:17:44.250Z,1.47
2018-11-12T10:22:40.693Z,1.53
2018-11-12T10:27:39.087Z,1.77
2018-11-12T10:32:38.011Z,1.80
2018-11-12T10:37:36.723Z,1.30
2018-11-12T10:42:35.190Z,0.93
2018-11-12T10:47:33.606Z,1.50
2018-11-12T10:52:32.018Z,1.53
2018-11-12T10:57:30.433Z,1.40
2018-11-12T11:02:33.490Z,1.60
2018-11-12T11:07:31.885Z,1.37
2018-11-12T11:12:30.313Z,1.23
2018-11-12T11:17:28.677Z,1.70
2018-11-12T11:22:27.196Z,1.50
2018-11-12T11:27:25.577Z,1.40
2018-11-12T11:32:23.982Z,1.40
2018-11-12T11:37:22.421Z,1.50
2018-11-12T11:42:20.974Z,1.40
2018-11-12T11:47:19.443Z,1.40
2018-11-12T11:52:17.795Z,1.43
2018-11-12T11:57:16.327Z,1.30
2018-11-12T12:02:14.674Z,1.40
2018-11-12T12:07:13.090Z,1.30
2018-11-12T12:12:11.550Z,1.40
2018-11-12T12:17:09.961Z,1.33
2018-11-12T12:22:08.377Z,1.37
2018-11-12T12:27:06.868Z,1.13
2018-11-12T12:32:05.563Z,1.40
2018-11-12T12:37:04.059Z,1.33
2018-11-12T12:42:02.430Z,1.20
2018-11-12T12:47:01.110Z,1.30
2018-11-12T12:51:59.450Z,1.30
2018-11-12T12:56:57.847Z,1.23
2018-11-12T13:01:56.264Z,1.40
2018-11-12T13:06:54.656Z,1.50
2018-11-12T13:11:53.180Z,1.47
2018-11-12T13:16:51.666Z,1.42
2018-11-12T13:21:50.185Z,1.20
2018-11-12T13:26:48.673Z,1.23
2018-11-12T13:31:47.080Z,1.10
2018-11-12T13:36:45.568Z,1.13
2018-11-12T13:41:44.037Z,1.30
2018-11-12T13:46:48.040Z,1.00
2018-11-12T13:51:46.443Z,1.10
2018-11-12T13:56:44.899Z,0.90
2018-11-12T14:01:43.258Z,0.90
2018-11-12T14:06:41.751Z,0.93
2018-11-12T14:11:40.406Z,0.97
2018-11-12T14:16:38.877Z,1.00
2018-11-12T14:21:37.488Z,1.10
2018-11-12T14:26:35.857Z,1.00
2018-11-12T14:31:34.593Z,1.10
2018-11-12T14:36:33.059Z,0.93
2018-11-12T14:41:31.414Z,1.03
2018-11-12T14:46:29.865Z,0.90
2018-11-12T14:51:28.247Z,1.10
2018-11-12T14:56:26.667Z,0.97
2018-11-12T15:01:25.140Z,0.80
2018-11-12T15:06:24.377Z,0.80
2018-11-12T15:11:22.750Z,0.93
2018-11-12T15:16:21.146Z,1.13
2018-11-12T15:21:19.526Z,0.90
2018-11-12T15:26:17.931Z,1.00
2018-11-12T15:31:16.863Z,1.20
2018-11-12T15:36:15.247Z,1.10
2018-11-12T15:41:13.618Z,0.80
2018-11-12T15:46:12.222Z,1.20
2018-11-12T15:51:10.788Z,1.03
2018-11-12T15:56:09.198Z,1.20
2018-11-12T16:01:07.605Z,1.07
2018-11-12T16:06:06.352Z,1.03
2018-11-12T16:11:04.515Z,0.93
2018-11-12T16:16:02.932Z,1.20
2018-11-12T16:21:01.305Z,1.03
2018-11-12T16:25:59.727Z,1.00
2018-11-12T16:30:58.237Z,0.97
2018-11-12T16:35:56.613Z,1.00
2018-11-12T16:40:55.030Z,0.90
2018-11-12T16:45:53.456Z,0.80
2018-11-12T16:50:51.913Z,1.00
2018-11-12T16:55:50.343Z,0.90
2018-11-12T17:00:48.722Z,1.27
2018-11-12T17:05:47.131Z,0.90
2018-11-12T17:10:45.550Z,1.10
2018-11-12T17:15:44.008Z,1.40
2018-11-12T17:20:42.398Z,1.33
2018-11-12T17:25:40.794Z,1.23
2018-11-12T17:30:39.206Z,1.33
2018-11-12T17:35:37.597Z,0.90
2018-11-12T17:40:35.957Z,1.00
2018-11-12T17:45:34.393Z,1.30
2018-11-12T17:50:32.780Z,1.20
2018-11-12T17:55:31.188Z,1.20
2018-11-12T18:00:32.385Z,1.03
2018-11-12T18:05:30.842Z,1.20
2018-11-12T18:10:29.306Z,1.33
2018-11-12T18:15:27.746Z,1.00
2018-11-12T18:20:27.397Z,1.20
2018-11-12T18:25:25.942Z,1.00
2018-11-12T18:30:25.975Z,1.17
2018-11-12T18:35:24.198Z,1.30
2018-11-12T18:40:24.045Z,1.20
2018-11-12T18:45:23.898Z,1.10
2018-11-12T18:50:23.881Z,1.40
2018-11-12T18:55:22.286Z,1.23
2018-11-12T19:00:22.726Z,1.27
2018-11-12T19:05:22.527Z,1.10
2018-11-12T19:10:24.087Z,1.20
2018-11-12T19:15:24.222Z,1.60
2018-11-12T19:20:22.807Z,1.13
2018-11-12T19:25:21.290Z,1.53
2018-11-12T19:30:20.950Z,1.20
2018-11-12T19:35:20.753Z,1.33
2018-11-12T19:40:20.283Z,1.10
2018-11-12T19:45:18.741Z,1.57
2018-11-12T19:50:18.445Z,1.10
2018-11-12T19:55:16.977Z,1.00
2018-11-12T20:00:16.529Z,1.33
2018-11-12T20:05:15.001Z,1.17
2018-11-12T20:10:14.657Z,1.33
2018-11-12T20:15:14.269Z,1.30
2018-11-12T20:20:16.371Z,1.20
2018-11-12T20:25:15.882Z,1.50
2018-11-12T20:30:16.334Z,1.30
2018-11-12T20:35:14.691Z,1.70
2018-11-12T20:40:14.071Z,1.50
2018-11-12T20:45:13.438Z,1.57
2018-11-12T20:50:12.789Z,1.33
2018-11-12T20:55:12.341Z,1.50
2018-11-12T21:00:13.050Z,1.57
2018-11-12T21:05:12.291Z,1.30
2018-11-12T21:10:12.415Z,1.33
2018-11-12T21:15:11.832Z,1.60
2018-11-12T21:20:12.061Z,1.50
2018-11-12T21:25:11.617Z,1.63
2018-11-12T21:30:11.636Z,1.30
2018-11-12T21:35:10.084Z,1.53
2018-11-12T21:40:10.048Z,1.50
2018-11-12T21:45:09.812Z,1.47
2018-11-12T21:50:08.929Z,1.53
2018-11-12T21:55:07.825Z,2.00
2018-11-12T22:00:08.063Z,1.70
2018-11-12T22:05:06.541Z,1.67
2018-11-12T22:10:06.007Z,1.40
2018-11-12T22:15:04.890Z,1.70
2018-11-12T22:20:04.008Z,1.53
2018-11-12T22:25:02.337Z,1.50
2018-11-12T22:30:01.002Z,1.57
2018-11-12T22:34:59.453Z,1.37
2018-11-12T22:39:57.818Z,1.60
2018-11-12T22:44:56.585Z,1.57
2018-11-12T22:49:55.044Z,1.67
2018-11-12T22:54:53.492Z,1.70
2018-11-12T22:59:51.921Z,1.50
2018-11-12T23:04:50.250Z,1.60
2018-11-12T23:09:48.693Z,1.77
2018-11-12T23:14:47.481Z,1.60
2018-11-12T23:19:46.008Z,1.73
2018-11-12T23:24:44.349Z,1.80
2018-11-12T23:29:42.760Z,1.53
2018-11-12T23:34:41.244Z,1.83
2018-11-12T23:39:39.593Z,1.50
2018-11-12T23:44:38.082Z,1.80
2018-11-12T23:49:36.537Z,1.47
2018-11-12T23:54:34.940Z,1.33
2018-11-12T23:59:33.291Z,1.80
